• Join FlightAware (Why Join?)
  • Login
  • US Flag 
06:07AM EST


 

Airport Tracker/Info


-or-


 

Live Flight TrackerFlight Track Log ✈ SKW5196 ✈ 29-Apr-2013 ✈ KORD - KSLC

Flight Track Log - Related Links

Times and Time Zones

All times are in EDT time to prevent confusion due to time zone crossing. See the SKW5196 flight status page for this flight to view local times or setup timezone preferences in your user account.

Time Position Orientation Groundspeed Altitude Reporting Facility
EDT Latitude Longitude Course Direction KTS MPH feet Rate Location/Type
10:12PM 41.9667 -88.0000 261° West 209 241 3,500  Level Chicago TRACON
10:13PM 42.0000 -88.1000 294° West 260 299 6,100 2,460 Climbing Chicago TRACON
10:14PM 42.0064 -88.1686 277° West 253 291 8,300 2,580 Climbing Chicago Center
10:15PM 42.0186 -88.2667 280° West 275 316 10,700 2,040 Climbing Chicago Center
10:16PM 42.0089 -88.3697 263° West 283 326 12,500 2,100 Climbing Chicago Center
10:17PM 41.8892 -88.7004 261° West  Level FlightAware Approximate
10:17PM 41.9869 -88.4803 255° West 307 353 15,000  Level Chicago Center
10:18PM 41.9572 -88.5944 251° West 322 371 16,800 1,860 Climbing Chicago Center
10:19PM 41.9314 -88.7144 254° West 335 386 18,800 1,800 Climbing Chicago Center
10:20PM 41.9172 -88.8422 262° West 347 399 20,600 1,920 Climbing Chicago Center
10:21PM 41.9022 -88.9972 263° West 353 406 22,800 1,860 Climbing Chicago Center
10:22PM 41.8992 -89.1300 268° West 356 410 24,500 1,560 Climbing Chicago Center
10:23PM 41.8972 -89.2636 269° West 362 417 26,000 1,320 Climbing Chicago Center
10:24PM 41.8964 -89.4008 270° West 368 423 27,200 1,080 Climbing Chicago Center
10:25PM 41.8942 -89.5414 269° West 376 433 28,300 1,020 Climbing Chicago Center
10:26PM 41.8889 -89.6839 267° West 382 440 29,300 840 Climbing Chicago Center
10:27PM 41.8864 -89.8306 269° West 392 451 30,100 780 Climbing Chicago Center
10:28PM 41.8864 -89.9778 270° West 404 465 30,900 960 Climbing Chicago Center
10:29PM 41.8828 -90.1594 269° West 409 471 32,100 1,140 Climbing Chicago Center
10:30PM 41.8789 -90.3086 268° West 407 468 33,300 900 Climbing Chicago Center
10:31PM 41.8744 -90.4567 268° West 403 464 34,000 300 Climbing Chicago Center
10:32PM 41.8708 -90.6111 268° West 414 476 34,000  Level Chicago Center
10:33PM 41.8644 -90.7772 267° West 445 512 34,000  Level Chicago Center
10:34PM 41.8603 -90.9442 268° West 448 516 34,000  Level Chicago Center
10:35PM 41.8547 -91.1111 267° West 450 518 34,000  Level Chicago Center
10:36PM 41.8497 -91.2781 268° West 451 519 34,000  Level Chicago Center
10:37PM 41.8431 -91.4778 268° West 450 518 34,000  Level Chicago Center
10:38PM 41.8369 -91.6431 267° West 447 514 34,000  Level Chicago Center
10:39PM 41.8311 -91.8086 267° West 446 513 34,000  Level Chicago Center
10:40PM 41.8242 -91.9756 267° West 449 517 34,000  Level Chicago Center
10:41PM 41.8181 -92.1403 267° West 446 513 34,000  Level Chicago Center
10:42PM 41.8108 -92.3042 267° West 444 511 34,000  Level Chicago Center
10:43PM 41.8033 -92.4683 267° West 443 510 34,000  Level Chicago Center
10:44PM 41.7958 -92.6331 267° West 445 512 34,000  Level Chicago Center
10:45PM 41.7928 -92.7333 268° West 444 511 34,000  Level Minneapolis Center
10:46PM 41.7847 -92.9097 267° West 450 518 34,000  Level Minneapolis Center
10:47PM 41.7756 -93.0722 266° West 446 513 34,000  Level Minneapolis Center
10:48PM 41.7683 -93.2386 267° West 450 518 34,000  Level Minneapolis Center
10:49PM 41.7597 -93.4022 266° West 448 516 34,000  Level Minneapolis Center
10:50PM 41.7519 -93.5636 266° West 441 507 34,000  Level Minneapolis Center
10:51PM 41.7147 -93.7233 253° West 462 532 34,000  Level Minneapolis Center
10:52PM 41.6650 -93.9150 251° West 460 529 34,000  Level Minneapolis Center
10:53PM 41.6217 -94.0747 250° West 462 532 34,000  Level Minneapolis Center
10:54PM 41.5786 -94.2289 250° West 456 525 34,000  Level Minneapolis Center
10:55PM 41.5356 -94.3858 250° West 454 522 34,000  Level Minneapolis Center
10:56PM 41.5097 -94.5481 258° West 453 521 34,000  Level Minneapolis Center
10:57PM 41.5031 -94.7128 267° West 448 516 34,000  Level Minneapolis Center
10:58PM 41.4944 -94.8781 266° West 449 517 34,000  Level Minneapolis Center
10:59PM 41.4872 -95.0417 267° West 445 512 34,000  Level Minneapolis Center
11:00PM 41.4769 -95.2408 266° West 449 517 34,000  Level Minneapolis Center
11:01PM 41.4647 -95.4383 265° West 447 514 34,000  Level Minneapolis Center
11:02PM 41.4556 -95.6025 266° West 446 513 34,000  Level Minneapolis Center
11:03PM 41.4461 -95.7539 265° West 445 512 34,000  Level Minneapolis Center
11:04PM 41.4367 -95.9169 266° West 444 511 34,000  Level Minneapolis Center
11:05PM 41.4308 -96.0794 267° West 442 509 34,000  Level Minneapolis Center
11:06PM 41.4203 -96.2414 265° West 441 507 34,000  Level Minneapolis Center
11:07PM 41.4056 -96.4344 264° West 440 506 34,000  Level Minneapolis Center
11:08PM 41.3947 -96.5944 265° West 438 504 34,000  Level Minneapolis Center
11:09PM 41.3839 -96.7564 265° West 440 506 34,000  Level Minneapolis Center
11:10PM 41.3725 -96.9172 265° West 438 504 34,000  Level Minneapolis Center
11:12PM 41.3606 -97.0792 264° West 440 506 34,000  Level Minneapolis Center
11:13PM 41.3492 -97.2403 265° West 439 505 34,000  Level Minneapolis Center
11:14PM 41.3372 -97.4064 265° West 442 509 34,000  Level Minneapolis Center
11:15PM 41.3258 -97.5683 265° West 441 507 34,000  Level Minneapolis Center
11:16PM 41.3136 -97.7314 264° West 442 509 34,000  Level Minneapolis Center
11:17PM 41.3011 -97.8942 264° West 443 510 34,000  Level Minneapolis Center
11:18PM 41.2883 -98.0567 264° West 442 509 34,000  Level Minneapolis Center
11:19PM 41.2728 -98.2508 264° West 441 507 34,000  Level Minneapolis Center
11:20PM 41.2569 -98.4442 264° West 441 507 34,000  Level Minneapolis Center
11:21PM 41.2439 -98.6008 264° West 438 504 34,000  Level Minneapolis Center
11:22PM 41.2308 -98.7611 264° West 437 503 34,000  Level Minneapolis Center
11:23PM 41.2178 -98.9175 264° West 439 505 34,000  Level Denver Center
11:24PM 41.2033 -99.0681 263° West 433 498 34,000  Level Denver Center
11:25PM 41.1892 -99.2286 263° West 432 497 34,000  Level Denver Center
11:26PM 41.1717 -99.4175 263° West 431 496 34,000  Level Denver Center
11:27PM 41.1583 -99.5711 263° West 431 496 34,000  Level Denver Center
11:28PM 41.1408 -99.7472 263° West 431 496 34,000  Level Denver Center
11:29PM 41.1247 -99.9250 263° West 434 499 34,000  Level Denver Center
11:30PM 41.1094 -100.0761 262° West 434 499 34,000  Level Denver Center
11:31PM 41.0953 -100.2281 263° West 435 501 34,000  Level Denver Center
11:32PM 41.0781 -100.4069 263° West 440 506 34,000  Level Denver Center
11:33PM 41.0622 -100.5594 262° West 440 506 34,100  Climbing Denver Center
11:34PM 41.0450 -100.7364 263° West 439 505 34,000 -60 Descending Denver Center
11:35PM 41.0286 -100.8856 262° West 434 499 34,000  Level Denver Center
11:36PM 41.0097 -101.0567 262° West 426 490 34,000  Level Denver Center
11:37PM 40.9944 -101.2053 262° West 428 493 34,000  Level Denver Center
11:38PM 40.9775 -101.3517 261° West 424 488 34,000  Level Denver Center
11:39PM 40.9589 -101.5231 262° West 422 486 34,000  Level Denver Center
11:40PM 40.9431 -101.6689 262° West 420 483 34,000  Level Denver Center
11:41PM 40.9239 -101.8378 262° West 418 481 34,000  Level Denver Center
11:42PM 40.9083 -101.9817 262° West 415 478 34,100  Climbing Denver Center
11:43PM 40.8917 -102.1242 261° West 413 475 34,000 -60 Descending Denver Center
11:44PM 40.8708 -102.2933 261° West 417 480 34,000  Level Denver Center
11:46PM 40.8539 -102.4381 261° West 417 480 34,000  Level Denver Center
11:47PM 40.8369 -102.5844 261° West 421 484 34,000  Level Denver Center
11:48PM 40.8181 -102.7544 262° West 421 484 34,000  Level Denver Center
11:49PM 40.7992 -102.8992 260° West 421 484 34,000  Level Denver Center
11:50PM 40.7794 -103.0569 261° West 418 481 34,000  Level Denver Center
11:51PM 40.7644 -103.1844 261° West 419 482 34,000  Level Denver Center
11:52PM 40.7411 -103.3622 260° West 419 482 34,000  Level Denver Center
11:53PM 40.7217 -103.5142 260° West 418 481 34,000  Level Denver Center
11:54PM 40.7031 -103.6661 261° West 417 480 34,000  Level Denver Center
11:55PM 40.6864 -103.7922 260° West 417 480 34,000  Level Denver Center
11:56PM 40.6628 -103.9681 260° West 415 478 34,000  Level Denver Center
11:57PM 40.6439 -104.1231 261° West 426 490 34,000  Level Denver Center
11:58PM 40.6194 -104.3000 260° West 421 484 34,000  Level Denver Center
11:59PM 40.6056 -104.4014 260° West 421 484 34,000  Level Denver Center
12:00AM 40.5775 -104.6036 260° West 419 482 34,000  Level Denver Center
12:01AM 40.5564 -104.7564 260° West 422 486 34,000  Level Denver Center
12:02AM 40.5350 -104.9086 260° West 422 486 34,000  Level Denver Center
12:03AM 40.5133 -105.0619 260° West 425 489 34,000  Level Denver Center
12:04AM 40.4911 -105.2133 259° West 422 486 34,000  Level Denver Center
12:05AM 40.4686 -105.3672 259° West 428 493 34,000  Level Denver Center
12:06AM 40.4467 -105.5206 259° West 425 489 34,000  Level Denver Center
12:07AM 40.4242 -105.6750 259° West 428 493 34,000  Level Denver Center
12:08AM 40.4008 -105.8286 259° West 428 493 34,000  Level Denver Center
12:09AM 40.3783 -105.9825 259° West 427 491 34,100  Climbing Denver Center
12:10AM 40.3550 -106.1350 259° West 425 489 34,000 -60 Descending Denver Center
12:11AM 40.3281 -106.3072 258° West 418 481 34,000  Level Denver Center
12:12AM 40.3056 -106.4522 259° West 423 487 34,000  Level Denver Center
12:13AM 40.2822 -106.5994 258° West 420 483 34,000  Level Denver Center
12:14AM 40.2600 -106.7525 259° West 426 490 34,000  Level Denver Center
12:15AM 40.2339 -106.9086 258° West 422 486 34,000  Level Denver Center
12:16AM 40.2111 -107.0522 258° West 421 484 34,000  Level Denver Center
12:17AM 40.1839 -107.2194 258° West 424 488 34,000  Level Denver Center
12:18AM 40.1619 -107.3639 259° West 424 488 34,000  Level Denver Center
12:19AM 40.1333 -107.5314 257° West 424 488 34,000  Level Denver Center
12:20AM 40.1097 -107.6750 258° West 424 488 34,000  Level Denver Center
12:21AM 40.0861 -107.8175 258° West 421 484 34,000  Level Denver Center
12:22AM 40.0700 -107.9858 263° West 422 486 34,000  Level Denver Center
12:23AM 40.0783 -108.1289 274° West 416 479 34,000  Level Denver Center
12:24AM 40.0867 -108.3175 273° West 411 473 34,000  Level Denver Center
12:25AM 40.0922 -108.4592 273° West 410 472 34,000  Level Denver Center
12:27AM 40.0983 -108.6233 273° West 409 471 34,000  Level Denver Center
12:28AM 40.1042 -108.7653 273° West 410 472 34,000  Level Denver Center
12:28AM 40.1097 -108.9067 273° West 411 473 34,000  Level Salt Lake Center
12:29AM 40.1156 -109.0722 273° West 410 472 34,000  Level Salt Lake Center
12:31AM 40.1206 -109.2144 273° West 411 473 34,000  Level Denver Center
12:32AM 40.1256 -109.3564 273° West 411 473 34,000  Level Salt Lake Center
12:33AM 40.1311 -109.5233 273° West 413 475 34,000 -600 Level Salt Lake Center
12:34AM 40.1358 -109.6647 273° West 410 472 32,900 -1,140 Descending Salt Lake Center
12:35AM 40.1403 -109.8044 272° West 404 465 31,800 -1,200 Descending Salt Lake Center
12:36AM 40.1450 -109.9669 272° West 400 460 30,500 -900 Descending Salt Lake Center
12:37AM 40.1494 -110.1075 272° West 404 465 30,000 -300 Descending Salt Lake Center
12:38AM 40.1489 -110.2719 270° West 407 468 30,000  Level Salt Lake Center
12:39AM 40.1469 -110.4147 269° West 411 473 30,000  Level Salt Lake Center
12:40AM 40.1458 -110.5594 269° West 415 478 30,000  Level Salt Lake Center
12:41AM 40.1444 -110.7292 269° West 418 481 30,000 -660 Level Salt Lake Center
12:42AM 40.1428 -110.8758 269° West 423 487 28,700 -2,100 Descending Salt Lake Center
12:43AM 40.1400 -111.0214 269° West 412 474 25,800 -2,820 Descending Salt Lake Center
12:44AM 40.1397 -111.1572 270° West 380 437 23,000 -2,760 Descending Salt Lake Center
12:45AM 40.1372 -111.2867 269° West 361 415 20,200 -2,760 Descending Salt Lake Center
12:46AM 40.1356 -111.4056 269° West 337 388 17,400 -2,100 Descending Salt Lake Center
12:47AM 40.1333 -111.5242 269° West 330 380 16,000 -1,140 Descending Salt Lake Center
12:47AM 40.1358 -111.5764 274° West 313 360 16,000  Level Salt Lake Center
12:48AM 40.1631 -111.6314 303° West 329 379 16,000  Level Salt Lake Center
12:49AM 40.2214 -111.7364 306° West 367 422 16,000 -720 Level Salt Lake Center
12:50AM 40.3089 -111.8097 327° Northwest 374 430 14,600 -2,340 Descending Salt Lake Center
12:51AM 40.3878 -111.8758 327° Northwest 351 404 11,900 -3,360 Descending Salt Lake Center
12:51AM 40.4094 -111.8850 342° North 348 400 11,200 -1,620 Descending Salt Lake Center
12:52AM 40.4842 -111.9414 330° Northwest 306 352 9,900 -1,140 Descending Salt Lake Center
12:53AM 40.5331 -111.9675 338° Northwest 255 293 9,200 -1,020 Descending Salt Lake Center
12:53AM 40.5508 -111.9664 North 252 290 8,900 -1,140 Descending Salt Lake Center
12:54AM 40.5997 -111.9789 349° North 240 276 8,100 -1,140 Descending Salt Lake Center
12:54AM 40.6150 -111.9769 North 229 264 7,800 -1,200 Descending Salt Lake Center
12:55AM 40.6569 -111.9850 352° North 186 214 6,800 -1,200 Descending Salt Lake Center
12:56AM 40.7011 -111.9897 355° North 159 183 5,600 -960 Descending Salt Lake Center
12:57AM 40.7358 -111.9919 357° North 116 133 4,900 -600 Descending Salt Lake Center
12:58AM 40.7692 -111.9978 352° North 120 138 4,400 -540 Descending Salt Lake Center
01:00AM 40.7833 -111.9667 North  Level FlightAware Approximate